Time;durP1;ratioP1;P1;durP2;ratioP2;P2;SDS_P1;SDS_P2;PMS_P1;PMS_P2;Temp;Humidity;BMP_temperature;BMP_pressure;BME280_temperature;BME280_humidity;BME280_pressure;Samples;Min_cycle;Max_cycle;Signal;HPM_P1;HPM_P2
2021/08/16 00:00:28;;;;;;;;;5.75;5.25;;;;;21.52;53.93;100729.63;5071373;27;46099;-83
2021/08/16 00:02:54;;;;;;;;;4.50;3.00;;;;;21.29;53.97;100700.28;5041590;28;46026;-84
2021/08/16 00:05:20;;;;;;;;;4.00;3.00;;;;;21.27;53.77;100712.09;5057105;28;47936;-82
2021/08/16 00:07:45;;;;;;;;;3.00;3.00;;;;;21.44;53.72;100731.50;5061359;28;45663;-83
2021/08/16 00:10:13;;;;;;;;;4.25;4.00;;;;;21.29;53.32;100710.94;5074297;27;45708;-83
2021/08/16 00:12:39;;;;;;;;;4.00;3.00;;;;;21.30;53.46;100712.59;5043741;28;45791;-82
2021/08/16 00:15:05;;;;;;;;;4.50;2.00;;;;;21.29;53.29;100721.59;5040618;28;45645;-84
2021/08/16 00:17:31;;;;;;;;;4.00;3.00;;;;;21.33;52.91;100751.41;5065995;28;46639;-84
2021/08/16 00:19:57;;;;;;;;;3.00;3.00;;;;;21.21;52.71;100718.16;5054944;28;46112;-84
2021/08/16 00:22:22;;;;;;;;;2.25;2.00;;;;;21.23;52.55;100729.47;5066254;28;45878;-83
2021/08/16 00:24:49;;;;;;;;;2.00;1.00;;;;;21.18;52.11;100716.66;5067104;28;45840;-82
2021/08/16 00:27:14;;;;;;;;;1.00;1.00;;;;;21.14;52.24;100711.84;5050410;28;45953;-83
2021/08/16 00:29:40;;;;;;;;;3.00;2.00;;;;;21.15;52.73;100732.19;5045216;28;46055;-83
2021/08/16 00:32:06;;;;;;;;;2.00;2.00;;;;;21.16;52.13;100723.19;5079327;28;45726;-84
2021/08/16 00:34:31;;;;;;;;;5.75;3.00;;;;;21.02;52.22;100695.41;5073809;27;47106;-84
2021/08/16 00:36:57;;;;;;;;;2.25;2.25;;;;;20.76;52.56;100666.41;5059371;28;47328;-82
2021/08/16 00:39:22;;;;;;;;;1.00;1.00;;;;;21.11;52.06;100718.31;5042851;28;45833;-85
2021/08/16 00:41:48;;;;;;;;;1.00;1.00;;;;;21.12;52.01;100716.50;5059136;28;46134;-83
2021/08/16 00:44:14;;;;;;;;;1.00;1.00;;;;;20.91;52.03;100682.47;5057068;28;46056;-84
2021/08/16 00:46:40;;;;;;;;;3.00;2.00;;;;;21.13;52.00;100710.16;5055718;28;45683;-83
2021/08/16 00:49:06;;;;;;;;;2.00;1.00;;;;;20.90;51.88;100670.16;5060599;28;45752;-83
2021/08/16 00:51:33;;;;;;;;;2.00;2.00;;;;;21.11;51.94;100707.66;5058297;28;46024;-84
2021/08/16 00:54:03;;;;;;;;;3.25;2.00;;;;;21.01;51.79;100708.88;5078007;28;45932;-84
2021/08/16 00:56:29;;;;;;;;;1.00;1.00;;;;;21.05;52.08;100718.22;5042639;28;47132;-84
2021/08/16 00:58:59;;;;;;;;;2.00;1.00;;;;;21.01;52.06;100716.88;5072577;27;45706;-84
2021/08/16 01:01:25;;;;;;;;;0.00;0.00;;;;;20.99;52.10;100709.09;5073454;28;45717;-84
2021/08/16 01:03:52;;;;;;;;;1.00;1.00;;;;;20.69;52.49;100664.59;5064575;28;47593;-84
2021/08/16 01:06:19;;;;;;;;;2.00;1.25;;;;;20.94;52.12;100701.59;5036047;28;46434;-83
2021/08/16 01:08:49;;;;;;;;;2.25;2.00;;;;;20.85;51.91;100693.81;5059719;28;46474;-85
2021/08/16 01:11:18;;;;;;;;;1.25;1.25;;;;;20.82;52.16;100691.50;5079484;28;46058;-83
2021/08/16 01:13:45;;;;;;;;;4.25;2.50;;;;;20.69;52.67;100676.06;5041928;28;47629;-84
2021/08/16 01:16:11;;;;;;;;;3.00;2.75;;;;;20.92;52.40;100711.59;5054649;28;47153;-83
2021/08/16 01:18:37;;;;;;;;;2.00;2.00;;;;;20.93;52.46;100707.13;5059974;27;45669;-84
2021/08/16 01:21:08;;;;;;;;;3.25;2.50;;;;;20.77;52.54;100686.72;5051723;28;45721;-84
2021/08/16 01:23:34;;;;;;;;;2.25;2.00;;;;;20.87;52.54;100703.31;5051110;28;47450;-84
2021/08/16 01:26:00;;;;;;;;;2.75;1.75;;;;;20.80;52.71;100691.69;5046900;28;47327;-83
2021/08/16 01:28:26;;;;;;;;;1.00;1.00;;;;;20.95;52.31;100713.06;5068505;28;45867;-83
2021/08/16 01:31:04;;;;;;;;;1.00;1.00;;;;;20.91;52.53;100693.13;5044705;28;45720;-84
2021/08/16 01:33:30;;;;;;;;;3.00;2.00;;;;;20.87;51.92;100689.16;5050472;28;45882;-82
2021/08/16 01:35:56;;;;;;;;;4.00;1.25;;;;;20.89;52.71;100692.50;5043985;28;46115;-83
2021/08/16 01:38:26;;;;;;;;;3.00;2.00;;;;;20.92;52.30;100694.78;5045744;28;45508;-83
2021/08/16 01:40:51;;;;;;;;;3.00;2.75;;;;;20.97;52.20;100700.44;5033050;28;45781;-83
2021/08/16 01:43:16;;;;;;;;;1.50;1.00;;;;;20.85;52.08;100680.50;5038791;28;48209;-83
2021/08/16 01:45:42;;;;;;;;;2.75;2.00;;;;;20.97;52.21;100713.75;5058593;28;45631;-83
2021/08/16 01:48:07;;;;;;;;;3.25;2.25;;;;;20.75;51.99;100667.41;5043146;28;45872;-83
2021/08/16 01:50:33;;;;;;;;;3.00;2.00;;;;;20.85;52.06;100691.97;5054990;28;45856;-84
2021/08/16 01:52:59;;;;;;;;;2.00;1.50;;;;;21.00;51.80;100709.91;5053558;28;45860;-84
2021/08/16 01:55:24;;;;;;;;;3.00;2.00;;;;;20.78;52.30;100682.22;5048075;28;46541;-85
2021/08/16 01:57:50;;;;;;;;;1.50;1.00;;;;;20.83;52.10;100680.69;5059955;28;46101;-85
2021/08/16 02:00:16;;;;;;;;;2.25;1.50;;;;;20.86;52.01;100696.31;5059451;28;45975;-84
2021/08/16 02:02:41;;;;;;;;;2.00;2.00;;;;;20.98;52.01;100711.91;5073255;27;47303;-82
2021/08/16 02:05:07;;;;;;;;;2.25;2.25;;;;;20.80;52.12;100689.00;5059473;28;45649;-83
2021/08/16 02:07:33;;;;;;;;;1.25;1.25;;;;;20.99;51.92;100716.25;5060431;28;45967;-84
2021/08/16 02:09:58;;;;;;;;;2.00;2.00;;;;;20.74;51.89;100687.03;5062616;28;45826;-85
2021/08/16 02:12:24;;;;;;;;;1.00;1.00;;;;;20.71;52.20;100682.06;5058842;28;46060;-84
2021/08/16 02:14:49;;;;;;;;;3.00;2.00;;;;;20.61;51.71;100667.31;5040828;28;47487;-83
2021/08/16 02:17:14;;;;;;;;;2.00;1.75;;;;;20.64;52.12;100669.59;5055276;28;45667;-85
2021/08/16 02:19:40;;;;;;;;;2.50;1.00;;;;;20.76;51.90;100689.53;5070761;28;45946;-84
2021/08/16 02:22:10;;;;;;;;;2.00;1.50;;;;;20.69;52.23;100669.91;5035730;28;48467;-84
2021/08/16 02:24:35;;;;;;;;;2.00;2.00;;;;;20.86;52.65;100700.81;5043388;28;47044;-85
2021/08/16 02:27:01;;;;;;;;;2.00;1.00;;;;;20.74;52.16;100683.53;5054934;28;45775;-84
2021/08/16 02:29:26;;;;;;;;;1.00;1.00;;;;;20.80;52.00;100701.50;5035893;28;45600;-83
2021/08/16 02:31:52;;;;;;;;;1.00;1.00;;;;;20.82;52.41;100700.34;5036240;28;48411;-83
2021/08/16 02:34:17;;;;;;;;;1.25;1.25;;;;;20.93;51.87;100710.59;5054426;28;46561;-85
2021/08/16 02:36:42;;;;;;;;;2.50;1.00;;;;;20.64;52.41;100650.97;5053230;28;45972;-84
2021/08/16 02:39:08;;;;;;;;;2.00;2.00;;;;;20.78;52.13;100690.22;5054076;28;45567;-83
2021/08/16 02:41:33;;;;;;;;;0.25;0.00;;;;;20.67;52.29;100670.13;5053047;28;47300;-83
2021/08/16 02:43:59;;;;;;;;;1.25;1.25;;;;;20.69;52.19;100676.06;5069090;27;46577;-84
2021/08/16 02:46:25;;;;;;;;;1.00;1.00;;;;;20.68;52.55;100666.41;5045491;28;46070;-84
2021/08/16 02:48:51;;;;;;;;;2.25;2.00;;;;;20.74;52.61;100667.56;5052976;28;46089;-83
2021/08/16 02:51:17;;;;;;;;;1.25;1.00;;;;;20.94;52.28;100709.59;5041170;28;46467;-84
2021/08/16 02:53:42;;;;;;;;;2.00;2.00;;;;;20.64;52.83;100659.78;5028943;28;48246;-84
2021/08/16 02:56:08;;;;;;;;;3.25;3.00;;;;;20.81;52.91;100697.84;5049072;28;45688;-84
2021/08/16 02:58:33;;;;;;;;;2.50;2.00;;;;;20.84;53.05;100702.81;5045560;28;45736;-84
2021/08/16 03:00:58;;;;;;;;;2.75;2.00;;;;;20.62;53.13;100675.09;5054784;28;46801;-84
2021/08/16 03:03:24;;;;;;;;;5.00;2.75;;;;;20.67;53.35;100683.44;5052036;28;45942;-83
2021/08/16 03:05:49;;;;;;;;;4.00;3.00;;;;;20.53;53.19;100661.00;5054090;28;45718;-83
2021/08/16 03:08:15;;;;;;;;;3.50;3.00;;;;;20.80;53.42;100710.31;5050035;28;45757;-83
2021/08/16 03:10:41;;;;;;;;;3.00;2.00;;;;;20.80;53.69;100712.16;5034757;28;47223;-83
2021/08/16 03:13:06;;;;;;;;;6.50;3.00;;;;;20.66;53.65;100696.91;5068383;27;47063;-83
2021/08/16 03:15:31;;;;;;;;;2.00;2.00;;;;;20.68;53.35;100708.19;5044210;28;45842;-83
2021/08/16 03:17:58;;;;;;;;;4.25;4.25;;;;;20.48;53.86;100666.00;5053869;28;45835;-84
2021/08/16 03:20:25;;;;;;;;;1.50;1.00;;;;;20.73;54.24;100717.31;5047788;28;45720;-84
2021/08/16 03:22:50;;;;;;;;;3.75;2.75;;;;;20.56;54.70;100690.94;5072111;28;47291;-84
2021/08/16 03:25:15;;;;;;;;;2.25;2.25;;;;;20.66;54.50;100715.53;5053548;28;46164;-83
2021/08/16 03:27:41;;;;;;;;;3.00;2.75;;;;;20.35;54.32;100665.69;5051997;28;45819;-83
2021/08/16 03:30:07;;;;;;;;;3.25;2.00;;;;;20.58;54.83;100692.44;5062333;28;46103;-83
2021/08/16 03:32:34;;;;;;;;;2.50;2.25;;;;;20.45;54.16;100673.50;5070713;28;47230;-83
2021/08/16 03:34:59;;;;;;;;;2.75;2.00;;;;;20.35;54.70;100662.25;5041911;28;45784;-83
2021/08/16 03:37:25;;;;;;;;;4.00;2.50;;;;;20.61;54.61;100705.41;5036433;28;46325;-83
2021/08/16 03:39:50;;;;;;;;;3.00;2.00;;;;;20.51;54.77;100686.94;5052651;28;45592;-84
2021/08/16 03:42:16;;;;;;;;;3.00;2.75;;;;;20.55;54.93;100689.28;5041966;28;48224;-83
2021/08/16 03:44:41;;;;;;;;;3.00;3.00;;;;;20.45;54.95;100689.50;5057976;28;45712;-84
2021/08/16 03:47:07;;;;;;;;;3.00;2.00;;;;;20.51;54.65;100704.78;5046097;28;45744;-84
2021/08/16 03:49:33;;;;;;;;;3.50;2.75;;;;;20.50;54.93;100701.28;5069124;27;47490;-84
2021/08/16 03:51:59;;;;;;;;;2.25;2.00;;;;;20.47;54.99;100703.44;5048782;28;46758;-81
2021/08/16 03:54:24;;;;;;;;;3.25;3.00;;;;;20.36;55.07;100699.31;5053196;28;46009;-82
2021/08/16 03:56:50;;;;;;;;;2.00;1.50;;;;;20.41;54.84;100712.09;5052650;28;45752;-83
2021/08/16 03:59:16;;;;;;;;;3.00;2.00;;;;;20.26;54.92;100684.50;5054950;27;46059;-85
2021/08/16 04:01:41;;;;;;;;;4.50;3.00;;;;;20.27;55.72;100708.28;5071175;28;46226;-83
2021/08/16 04:04:08;;;;;;;;;2.00;1.75;;;;;20.13;55.26;100679.72;5058082;28;46020;-83
2021/08/16 04:06:33;;;;;;;;;3.00;2.00;;;;;20.15;55.52;100691.00;5056592;28;45554;-81
2021/08/16 04:08:58;;;;;;;;;4.00;2.25;;;;;20.17;55.34;100690.84;5054425;28;46903;-82
2021/08/16 04:11:24;;;;;;;;;2.75;2.75;;;;;20.13;55.32;100688.50;5054686;28;45578;-83
2021/08/16 04:13:49;;;;;;;;;2.75;2.50;;;;;20.08;55.43;100703.34;5070134;28;45973;-83
2021/08/16 04:16:14;;;;;;;;;3.00;3.00;;;;;20.02;56.15;100698.69;5071119;28;45675;-82
2021/08/16 04:18:40;;;;;;;;;3.75;2.00;;;;;20.05;56.39;100712.47;5055303;28;46426;-81
2021/08/16 04:21:06;;;;;;;;;2.50;2.00;;;;;20.02;55.46;100720.78;5054252;28;45569;-83
2021/08/16 04:23:32;;;;;;;;;3.25;2.50;;;;;19.75;55.50;100686.56;5054267;28;45615;-81
2021/08/16 04:25:57;;;;;;;;;3.00;3.00;;;;;19.88;55.89;100702.84;5054919;28;45502;-81
2021/08/16 04:28:22;;;;;;;;;5.25;2.00;;;;;19.79;55.81;100692.38;5054682;28;45764;-82
2021/08/16 04:30:49;;;;;;;;;2.50;1.50;;;;;19.72;55.83;100678.91;5054727;28;45705;-82
2021/08/16 04:33:14;;;;;;;;;2.50;2.50;;;;;19.53;55.98;100663.28;5055200;28;45633;-82
2021/08/16 04:35:40;;;;;;;;;2.75;1.50;;;;;19.61;56.09;100681.88;5055085;28;45853;-81
2021/08/16 04:38:05;;;;;;;;;2.50;1.75;;;;;19.60;56.07;100683.72;5054878;28;46350;-80
2021/08/16 04:40:31;;;;;;;;;2.75;1.75;;;;;19.79;55.87;100727.78;5054913;28;45657;-81
2021/08/16 04:42:56;;;;;;;;;2.50;1.75;;;;;19.66;55.95;100704.31;5069930;28;45667;-82
2021/08/16 04:45:22;;;;;;;;;3.75;2.50;;;;;19.55;56.10;100691.34;5054531;28;45690;-80
2021/08/16 04:47:47;;;;;;;;;1.50;1.50;;;;;19.52;55.93;100681.06;5036388;28;47957;-80
2021/08/16 04:50:15;;;;;;;;;1.50;0.75;;;;;19.48;56.10;100682.41;5054649;28;45581;-83
2021/08/16 04:52:41;;;;;;;;;1.75;1.50;;;;;19.67;56.11;100729.91;5055070;28;45651;-79
2021/08/16 04:58:28;;;;;;;;;2.00;1.00;;;;;19.62;56.25;100708.31;5057061;28;46042;-80
2021/08/16 05:00:53;;;;;;;;;1.25;1.25;;;;;19.55;56.13;100701.16;5060482;28;45627;-77
2021/08/16 05:03:18;;;;;;;;;3.50;2.00;;;;;19.63;56.71;100725.09;5060371;28;45495;-78
2021/08/16 05:05:49;;;;;;;;;1.75;1.50;;;;;19.62;56.54;100720.78;5060246;28;45505;-81
2021/08/16 05:08:15;;;;;;;;;1.00;1.00;;;;;19.58;56.36;100722.94;5054604;28;45592;-79
2021/08/16 05:10:41;;;;;;;;;2.50;1.00;;;;;19.57;56.50;100715.94;5069476;28;48209;-81
2021/08/16 05:13:06;;;;;;;;;1.50;1.50;;;;;19.50;56.43;100708.78;5054318;28;45790;-80
2021/08/16 05:15:32;;;;;;;;;2.00;2.00;;;;;19.55;56.44;100722.41;5054649;28;45835;-81
2021/08/16 05:18:02;;;;;;;;;1.75;1.75;;;;;19.44;56.57;100706.75;5054230;28;46323;-80
2021/08/16 05:20:29;;;;;;;;;3.25;1.50;;;;;19.46;56.60;100716.25;5053577;28;46139;-82
2021/08/16 05:22:54;;;;;;;;;1.75;1.00;;;;;19.44;56.34;100702.28;5054193;28;45584;-82
2021/08/16 05:28:41;;;;;;;;;3.25;1.75;;;;;19.65;56.21;100744.34;5053844;28;45562;-80
2021/08/16 05:31:07;;;;;;;;;2.50;1.50;;;;;19.62;56.24;100742.88;5054028;28;45613;-79
2021/08/16 05:33:32;;;;;;;;;1.50;0.75;;;;;19.61;56.50;100743.88;5054123;28;46211;-79
2021/08/16 05:35:57;;;;;;;;;1.75;1.00;;;;;19.57;56.66;100747.84;5054021;28;45843;-79
2021/08/16 05:38:23;;;;;;;;;0.50;0.50;;;;;19.53;56.32;100735.06;5053959;28;45565;-79
2021/08/16 05:44:10;;;;;;;;;3.50;2.00;;;;;19.49;56.92;100754.97;5054101;28;45530;-78
2021/08/16 05:46:35;;;;;;;;;1.25;0.75;;;;;19.50;56.98;100764.59;5054612;28;45709;-81
2021/08/16 05:49:01;;;;;;;;;2.00;1.75;;;;;19.43;56.80;100761.75;5054205;28;45483;-79
2021/08/16 05:51:26;;;;;;;;;1.75;0.75;;;;;19.30;56.74;100740.13;5053988;28;46219;-81
2021/08/16 05:53:51;;;;;;;;;2.00;1.00;;;;;19.44;56.89;100762.56;5053965;28;45707;-80
2021/08/16 05:56:17;;;;;;;;;2.50;2.00;;;;;19.40;57.35;100764.72;5054222;28;45610;-79
2021/08/16 05:58:42;;;;;;;;;1.50;1.50;;;;;19.37;57.07;100759.75;5053773;28;46620;-81
2021/08/16 06:01:08;;;;;;;;;2.00;2.00;;;;;19.40;57.00;100769.19;5053116;28;45970;-80
2021/08/16 06:03:34;;;;;;;;;2.00;1.00;;;;;19.38;57.19;100766.69;5053847;28;45766;-80
2021/08/16 06:05:59;;;;;;;;;3.50;2.00;;;;;19.37;57.10;100770.38;5053882;28;45804;-80
2021/08/16 06:08:25;;;;;;;;;1.00;1.00;;;;;19.39;57.03;100772.84;5053588;28;45561;-81
2021/08/16 06:14:11;;;;;;;;;2.00;1.25;;;;;19.25;57.65;100747.75;5053410;28;45626;-79
2021/08/16 06:16:37;;;;;;;;;1.25;1.25;;;;;19.38;57.38;100765.88;5053422;28;45884;-80
2021/08/16 06:19:03;;;;;;;;;3.00;2.00;;;;;19.39;57.07;100765.72;5053588;28;46144;-79
2021/08/16 06:21:28;;;;;;;;;1.00;1.00;;;;;19.42;57.26;100765.41;5052693;28;46521;-80
2021/08/16 06:23:54;;;;;;;;;0.00;0.00;;;;;19.43;57.56;100766.22;5053409;28;45569;-80
2021/08/16 06:26:19;;;;;;;;;1.50;1.25;;;;;19.42;57.90;100770.72;5054186;28;45698;-78
2021/08/16 06:28:45;;;;;;;;;1.00;1.00;;;;;19.45;57.53;100766.91;5055171;28;45661;-77
2021/08/16 06:31:10;;;;;;;;;1.00;1.00;;;;;19.45;57.40;100773.06;5054228;28;45661;-79
2021/08/16 06:33:41;;;;;;;;;0.75;0.75;;;;;19.45;57.78;100770.41;5057743;28;45626;-80
2021/08/16 06:36:06;;;;;;;;;2.25;2.00;;;;;19.38;57.86;100749.94;5057320;28;45809;-80
2021/08/16 06:38:32;;;;;;;;;1.00;0.75;;;;;19.35;57.77;100758.22;5056782;28;45568;-80
2021/08/16 06:44:21;;;;;;;;;2.00;1.00;;;;;19.46;57.88;100776.56;5056457;28;45518;-80
2021/08/16 06:46:47;;;;;;;;;1.25;1.00;;;;;19.50;57.95;100783.19;5056912;28;45664;-80
2021/08/16 06:49:13;;;;;;;;;1.50;0.75;;;;;19.53;57.84;100789.03;5056654;28;45812;-80
2021/08/16 06:51:39;;;;;;;;;2.50;1.50;;;;;19.54;58.07;100792.53;5055927;28;46073;-80
2021/08/16 06:54:04;;;;;;;;;1.50;1.50;;;;;19.56;57.84;100793.19;5056479;28;45639;-79
2021/08/16 06:56:30;;;;;;;;;0.75;0.75;;;;;19.62;57.93;100789.88;5056621;28;45600;-79
2021/08/16 06:58:55;;;;;;;;;0.50;0.50;;;;;19.64;57.58;100791.41;5056294;28;46302;-80
2021/08/16 07:01:22;;;;;;;;;0.00;0.00;;;;;19.58;57.59;100780.59;5055989;28;46911;-79
2021/08/16 07:03:48;;;;;;;;;0.50;0.50;;;;;19.65;57.64;100787.72;5056075;28;45654;-80
2021/08/16 07:06:14;;;;;;;;;1.50;0.50;;;;;19.53;57.72;100761.63;5056469;28;45725;-79
2021/08/16 07:08:41;;;;;;;;;0.50;0.50;;;;;19.72;57.65;100797.72;5056232;28;45505;-80
2021/08/16 07:14:28;;;;;;;;;0.25;0.00;;;;;19.72;58.22;100809.19;5055716;28;45642;-82
2021/08/16 07:16:53;;;;;;;;;1.25;0.75;;;;;19.65;58.03;100798.34;5056094;28;45874;-80
2021/08/16 07:19:18;;;;;;;;;2.25;0.50;;;;;19.72;58.01;100813.66;5056104;28;46389;-79
2021/08/16 07:21:46;;;;;;;;;1.25;1.00;;;;;19.65;58.60;100797.53;5055908;28;45565;-78
2021/08/16 07:24:12;;;;;;;;;0.25;0.25;;;;;19.55;58.20;100788.88;5055967;28;45609;-79
2021/08/16 07:26:37;;;;;;;;;0.50;0.50;;;;;19.73;58.23;100805.53;5037704;28;45648;-78
2021/08/16 07:29:02;;;;;;;;;1.50;0.50;;;;;19.76;58.85;100810.50;5056020;28;46278;-80
2021/08/16 07:31:28;;;;;;;;;1.00;0.00;;;;;19.73;58.56;100810.00;5055468;28;46219;-79
2021/08/16 07:33:53;;;;;;;;;1.50;0.50;;;;;19.75;58.84;100814.19;5055444;28;45805;-80
2021/08/16 07:36:18;;;;;;;;;0.00;0.00;;;;;19.67;58.87;100801.69;5055736;28;45577;-79
2021/08/16 07:38:44;;;;;;;;;0.75;0.75;;;;;19.74;58.73;100819.66;5055809;28;47501;-80
2021/08/16 07:44:31;;;;;;;;;2.00;0.00;;;;;19.63;59.04;100820.78;5054818;28;45531;-80
2021/08/16 07:46:59;;;;;;;;;0.50;0.25;;;;;19.73;59.25;100829.47;5055133;28;45553;-81
2021/08/16 07:49:32;;;;;;;;;0.50;0.00;;;;;19.72;59.85;100818.97;5055549;28;47431;-82
2021/08/16 07:51:58;;;;;;;;;0.00;0.00;;;;;19.69;59.38;100820.16;5037401;28;46170;-81
2021/08/16 07:54:24;;;;;;;;;1.25;0.50;;;;;19.68;59.46;100819.31;5055519;28;45749;-79
2021/08/16 07:56:50;;;;;;;;;0.75;0.75;;;;;19.63;60.22;100811.00;5055880;28;45565;-77
2021/08/16 07:59:17;;;;;;;;;0.25;0.00;;;;;19.66;59.89;100825.78;5055431;28;46199;-79
2021/08/16 08:01:42;;;;;;;;;1.50;0.50;;;;;19.68;59.57;100821.16;5057118;28;46074;-78
2021/08/16 08:04:08;;;;;;;;;0.50;0.25;;;;;19.67;60.14;100824.78;5059845;28;45601;-79
2021/08/16 08:06:33;;;;;;;;;1.75;0.75;;;;;19.61;60.16;100810.31;5059537;28;45611;-78
2021/08/16 08:08:59;;;;;;;;;0.25;0.25;;;;;19.75;59.75;100842.59;5059586;28;45787;-79
2021/08/16 08:14:46;;;;;;;;;0.50;0.25;;;;;19.75;59.92;100824.81;5055318;28;45558;-81
2021/08/16 08:17:12;;;;;;;;;0.75;0.25;;;;;19.76;59.88;100815.81;5055914;28;45692;-79
2021/08/16 08:19:37;;;;;;;;;1.00;1.00;;;;;19.83;59.88;100821.31;5055246;28;45544;-80
2021/08/16 08:22:03;;;;;;;;;0.75;0.75;;;;;19.86;59.89;100837.81;5054721;28;46197;-78
2021/08/16 08:24:28;;;;;;;;;0.00;0.00;;;;;19.87;59.80;100834.13;5055262;28;45621;-80
2021/08/16 08:26:53;;;;;;;;;0.50;0.00;;;;;19.91;59.80;100839.97;5055456;28;45513;-81
2021/08/16 08:29:19;;;;;;;;;0.75;0.75;;;;;19.95;59.78;100836.00;5055106;28;46382;-81
2021/08/16 08:31:44;;;;;;;;;1.00;0.75;;;;;19.99;60.20;100839.97;5070439;28;46171;-81
2021/08/16 08:34:10;;;;;;;;;0.75;0.75;;;;;20.00;59.82;100836.31;5036630;28;46001;-79
2021/08/16 08:36:35;;;;;;;;;0.75;0.75;;;;;20.04;59.94;100858.94;5055215;28;45541;-81
2021/08/16 08:39:00;;;;;;;;;1.00;0.50;;;;;20.02;60.32;100837.00;5054647;28;45686;-82
2021/08/16 08:44:48;;;;;;;;;0.00;0.00;;;;;20.11;60.42;100844.81;5054567;28;45661;-82
2021/08/16 08:47:13;;;;;;;;;1.00;1.00;;;;;20.13;59.84;100863.28;5070251;28;45483;-83
2021/08/16 08:49:40;;;;;;;;;0.50;0.50;;;;;20.13;59.56;100850.78;5054499;28;46492;-81
2021/08/16 08:52:06;;;;;;;;;1.25;0.75;;;;;20.13;60.18;100852.66;5054699;28;46234;-81
2021/08/16 09:01:15;;;;;;;;;0.75;0.00;;;;;20.15;60.00;100863.09;5055018;28;45630;-80
2021/08/16 09:03:51;;;;;;;;;1.00;1.00;;;;;20.13;59.87;100865.13;5056496;28;46968;-83
2021/08/16 09:06:30;;;;;;;;;1.00;0.00;;;;;20.13;59.84;100861.44;5057034;28;45725;-82
2021/08/16 09:08:57;;;;;;;;;0.50;0.50;;;;;20.16;60.29;100862.94;5056480;28;45506;-83
2021/08/16 09:14:46;;;;;;;;;1.25;0.75;;;;;20.20;60.11;100868.75;5060371;28;45606;-82
2021/08/16 09:17:11;;;;;;;;;0.00;0.00;;;;;20.22;59.61;100872.09;5060060;28;45698;-83
2021/08/16 09:19:42;;;;;;;;;0.50;0.00;;;;;20.23;60.26;100863.97;5064834;28;45776;-82
2021/08/16 09:22:09;;;;;;;;;0.00;0.00;;;;;20.12;60.13;100858.97;5060673;28;46497;-82
2021/08/16 09:24:35;;;;;;;;;1.00;1.00;;;;;20.22;60.23;100883.56;5053868;28;45507;-83
2021/08/16 09:30:34;;;;;;;;;0.75;0.75;;;;;20.22;60.33;100880.91;5054169;28;45714;-81
2021/08/16 09:33:16;;;;;;;;;1.00;0.00;;;;;20.25;60.40;100909.00;5053612;28;47597;-82
2021/08/16 09:35:48;;;;;;;;;2.00;1.00;;;;;20.27;61.01;100894.56;5054067;28;46041;-81
2021/08/16 09:38:14;;;;;;;;;0.75;0.75;;;;;20.26;60.67;100886.72;5059144;28;45616;-80
2021/08/16 09:40:40;;;;;;;;;1.50;1.50;;;;;20.32;60.69;100894.94;5060091;28;45700;-82
2021/08/16 09:43:05;;;;;;;;;1.00;1.00;;;;;20.18;60.51;100870.78;5042004;28;46805;-83
2021/08/16 09:45:33;;;;;;;;;2.00;1.75;;;;;20.27;60.59;100881.25;5057199;28;46269;-80
2021/08/16 09:48:02;;;;;;;;;2.00;2.00;;;;;20.36;60.46;100906.06;5056203;28;45679;-83
2021/08/16 09:50:42;;;;;;;;;1.00;1.00;;;;;20.37;60.35;100897.94;5056163;28;45628;-82
2021/08/16 09:53:13;;;;;;;;;1.25;1.25;;;;;20.36;60.64;100903.41;5053919;28;45645;-80
2021/08/16 09:55:41;;;;;;;;;1.50;1.00;;;;;20.33;60.50;100899.25;5053620;28;46320;-77
2021/08/16 09:58:09;;;;;;;;;1.00;1.00;;;;;20.46;60.58;100907.56;5053825;28;45696;-79
2021/08/16 10:00:37;;;;;;;;;1.00;1.00;;;;;20.49;60.64;100903.75;5053234;28;45712;-78
2021/08/16 10:03:04;;;;;;;;;2.00;1.00;;;;;20.53;60.43;100908.59;5053692;28;46367;-78
2021/08/16 10:05:31;;;;;;;;;1.00;1.00;;;;;20.60;60.37;100910.59;5054106;28;46160;-82
2021/08/16 10:08:00;;;;;;;;;1.25;1.25;;;;;20.65;60.50;100901.09;5056682;28;45705;-82
2021/08/16 10:10:26;;;;;;;;;2.75;1.00;;;;;20.71;60.11;100903.09;5059158;28;45594;-81
2021/08/16 10:12:52;;;;;;;;;2.00;2.00;;;;;20.66;59.99;100885.97;5073299;28;46723;-83
2021/08/16 10:15:18;;;;;;;;;0.00;0.00;;;;;20.77;63.29;100931.72;5057348;28;46138;-82
2021/08/16 10:17:44;;;;;;;;;1.00;1.00;;;;;20.64;67.67;100935.88;5058725;28;45600;-82
2021/08/16 10:20:12;;;;;;;;;1.00;1.00;;;;;20.42;69.45;100945.34;5058250;28;45682;-83
2021/08/16 10:22:40;;;;;;;;;1.75;1.00;;;;;20.13;70.85;100931.63;5057796;28;46701;-83
2021/08/16 10:25:13;;;;;;;;;1.25;1.25;;;;;20.00;72.68;100950.69;5040162;28;46122;-83
2021/08/16 10:27:39;;;;;;;;;1.50;1.00;;;;;19.80;71.25;100942.16;5057787;28;45609;-81
2021/08/16 10:30:07;;;;;;;;;1.00;1.00;;;;;19.67;71.27;100939.09;5057034;28;45447;-83
2021/08/16 10:32:33;;;;;;;;;1.25;0.75;;;;;19.54;72.18;100960.00;5056589;28;46622;-82
2021/08/16 10:35:10;;;;;;;;;0.50;0.50;;;;;19.39;71.83;100943.75;5056546;28;47068;-82
2021/08/16 10:37:43;;;;;;;;;2.00;2.00;;;;;19.37;72.59;100953.72;5057092;28;45534;-81
2021/08/16 10:40:21;;;;;;;;;0.75;0.00;;;;;19.32;72.37;100955.19;5056811;28;45631;-80
2021/08/16 10:42:48;;;;;;;;;1.75;1.75;;;;;19.28;72.83;100959.97;5056728;28;47427;-82
2021/08/16 10:45:25;;;;;;;;;2.00;1.00;;;;;19.19;73.13;100944.97;5056970;28;46179;-83
2021/08/16 10:48:00;;;;;;;;;1.00;0.75;;;;;19.25;73.33;100971.75;5057043;28;45495;-84
2021/08/16 10:50:25;;;;;;;;;2.00;1.75;;;;;19.24;72.68;100953.28;5056765;28;45482;-84
2021/08/16 10:53:00;;;;;;;;;2.00;1.75;;;;;19.30;73.44;100957.97;5056570;28;46420;-84
2021/08/16 10:55:26;;;;;;;;;1.75;1.75;;;;;19.34;73.65;100961.16;5056111;28;46363;-84
2021/08/16 10:57:53;;;;;;;;;2.25;1.50;;;;;19.35;72.53;100953.03;5056663;28;45468;-81
2021/08/16 11:00:20;;;;;;;;;2.00;2.00;;;;;19.31;71.86;100961.47;5056315;28;45673;-82
2021/08/16 11:02:52;;;;;;;;;2.50;2.50;;;;;19.49;71.38;100962.25;5056531;28;45643;-79
2021/08/16 11:05:29;;;;;;;;;3.00;2.00;;;;;19.57;71.85;100971.13;5056409;28;46149;-82
2021/08/16 11:07:54;;;;;;;;;2.00;1.75;;;;;19.65;72.13;100986.28;5056113;28;45611;-83
2021/08/16 11:10:20;;;;;;;;;1.00;1.00;;;;;19.64;69.58;100966.03;5056223;28;45810;-84
2021/08/16 11:12:46;;;;;;;;;4.25;3.00;;;;;19.75;68.99;100989.69;5056860;28;46409;-82
2021/08/16 11:15:19;;;;;;;;;3.00;3.00;;;;;19.82;71.29;101017.28;5056116;28;46879;-83
2021/08/16 11:17:45;;;;;;;;;2.25;2.25;;;;;19.89;70.16;100977.59;5056323;28;45681;-83
2021/08/16 11:20:15;;;;;;;;;5.00;3.00;;;;;19.94;69.43;101008.03;5056925;28;45776;-83
2021/08/16 11:22:52;;;;;;;;;3.50;3.00;;;;;19.93;69.21;100990.41;5059210;28;45977;-83
2021/08/16 11:25:17;;;;;;;;;3.00;3.00;;;;;19.95;69.42;100987.59;5060930;28;45511;-81
2021/08/16 11:27:43;;;;;;;;;4.00;3.75;;;;;20.15;70.23;101012.09;5043076;28;45635;-80
2021/08/16 11:30:11;;;;;;;;;5.00;4.25;;;;;20.18;69.08;101027.75;5061097;28;45786;-82
2021/08/16 11:32:38;;;;;;;;;4.50;4.00;;;;;20.14;69.47;100992.63;5060231;28;47388;-83
2021/08/16 11:35:05;;;;;;;;;4.00;4.00;;;;;20.27;68.23;101013.47;5056020;28;46371;-82
2021/08/16 11:37:34;;;;;;;;;4.50;3.50;;;;;20.31;67.05;101013.03;5056576;28;45694;-82
2021/08/16 11:40:00;;;;;;;;;3.50;3.50;;;;;20.35;69.30;101013.53;5055849;28;45730;-81
2021/08/16 11:45:47;;;;;;;;;6.00;5.50;;;;;20.45;67.33;101012.41;5055582;28;45914;-83
2021/08/16 11:48:22;;;;;;;;;8.00;7.25;;;;;20.51;68.31;101030.38;5055510;28;45661;-82
2021/08/16 11:50:56;;;;;;;;;6.25;5.25;;;;;20.55;65.58;101033.56;5055803;28;45683;-82
2021/08/16 11:53:22;;;;;;;;;7.00;6.25;;;;;20.59;64.67;101018.91;5055830;28;45632;-84
2021/08/16 11:55:47;;;;;;;;;6.00;5.75;;;;;20.64;64.30;101031.72;5055813;28;45467;-82
2021/08/16 11:58:12;;;;;;;;;5.00;4.00;;;;;20.66;66.65;101045.72;5055783;28;45548;-84
2021/08/16 12:00:38;;;;;;;;;7.50;7.25;;;;;20.64;62.85;101021.06;5055604;28;45977;-81
2021/08/16 12:03:04;;;;;;;;;7.50;6.50;;;;;20.66;64.76;101027.94;5055569;28;47449;-85
2021/08/16 12:05:30;;;;;;;;;7.50;6.75;;;;;20.70;63.34;101029.25;5055670;28;46347;-82
2021/08/16 12:07:56;;;;;;;;;7.50;7.25;;;;;20.76;62.70;101038.41;5058194;28;45686;-84